Time;durP1;ratioP1;P1;durP2;ratioP2;P2;SDS_P1;SDS_P2;PMS_P1;PMS_P2;Temp;Humidity;BMP_temperature;BMP_pressure;BME280_temperature;BME280_humidity;BME280_pressure;Samples;Min_cycle;Max_cycle;Signal;HPM_P1;HPM_P2
2022/07/13 00:00:30;;;;;;;8.32;7.32;;;22.90;99.90;;;;;;5121301;27;20321;-88
2022/07/13 00:03:10;;;;;;;8.02;7.28;;;22.80;99.90;;;;;;5129256;28;20217;-88
2022/07/13 00:05:38;;;;;;;9.32;7.70;;;22.80;99.90;;;;;;5154667;27;20215;-88
2022/07/13 00:08:06;;;;;;;8.32;7.45;;;22.80;99.90;;;;;;5129064;28;20187;-88
2022/07/13 00:10:33;;;;;;;8.57;7.70;;;22.70;99.90;;;;;;5125040;27;20214;-89
2022/07/13 00:13:01;;;;;;;8.77;7.70;;;22.70;99.90;;;;;;5135520;28;20277;-88
2022/07/13 00:15:28;;;;;;;8.63;7.38;;;22.70;99.90;;;;;;5135708;27;20222;-87
2022/07/13 00:18:02;;;;;;;10.35;7.18;;;22.70;99.90;;;;;;5131445;27;20289;-87
2022/07/13 00:20:33;;;;;;;8.75;7.43;;;22.70;99.90;;;;;;5147914;27;20201;-88
2022/07/13 00:23:03;;;;;;;8.68;7.50;;;22.70;99.90;;;;;;5149107;27;20844;-87
2022/07/13 00:25:42;;;;;;;8.20;7.03;;;22.60;99.90;;;;;;5141150;27;20209;-88
2022/07/13 00:28:11;;;;;;;9.60;7.85;;;22.60;99.90;;;;;;5143077;27;20202;-88
2022/07/13 00:30:53;;;;;;;8.05;7.20;;;22.60;99.90;;;;;;5139987;27;20293;-88
2022/07/13 00:33:27;;;;;;;10.10;8.07;;;22.60;99.90;;;;;;5110398;28;20215;-88
2022/07/13 00:36:03;;;;;;;10.40;8.20;;;22.60;99.90;;;;;;5137346;27;20202;-88
2022/07/13 00:38:35;;;;;;;11.70;7.78;;;22.60;99.90;;;;;;5110130;27;20199;-87
2022/07/13 00:41:06;;;;;;;9.18;7.22;;;22.60;99.90;;;;;;5127842;27;20215;-89
2022/07/13 00:43:36;;;;;;;8.43;7.53;;;22.60;99.90;;;;;;5137095;27;20223;-86
2022/07/13 00:46:09;;;;;;;8.68;6.88;;;22.50;99.90;;;;;;5126619;27;20271;-88
2022/07/13 00:48:39;;;;;;;8.57;7.35;;;22.50;99.90;;;;;;5124467;28;20234;-89
2022/07/13 00:51:19;;;;;;;8.75;7.45;;;22.50;99.90;;;;;;5144192;27;20205;-88
2022/07/13 00:54:01;;;;;;;11.25;7.53;;;22.50;99.90;;;;;;5129519;27;20202;-87
2022/07/13 00:56:30;;;;;;;8.02;7.05;;;22.50;99.90;;;;;;5127508;27;20289;-88
2022/07/13 00:59:08;;;;;;;7.18;6.47;;;22.50;99.90;;;;;;5118260;28;21008;-88
2022/07/13 01:01:54;;;;;;;7.20;6.50;;;22.50;99.90;;;;;;5117027;27;20958;-88
2022/07/13 01:04:26;;;;;;;8.82;6.82;;;22.50;99.90;;;;;;5132984;27;20245;-89
2022/07/13 01:07:09;;;;;;;8.20;6.55;;;22.50;99.90;;;;;;5156440;27;20487;-88
2022/07/13 01:09:43;;;;;;;8.23;6.28;;;22.50;99.90;;;;;;5126259;28;20187;-88
2022/07/13 01:13:03;;;;;;;7.88;6.28;;;22.50;99.90;;;;;;5139334;27;20223;-87
2022/07/13 01:15:52;;;;;;;7.57;6.32;;;22.40;99.90;;;;;;5158629;27;20210;-89
2022/07/13 01:18:25;;;;;;;7.57;6.47;;;22.40;99.90;;;;;;5136014;27;20434;-88
2022/07/13 01:20:56;;;;;;;6.85;5.90;;;22.40;99.90;;;;;;5125142;28;20203;-89
2022/07/13 01:23:28;;;;;;;7.50;6.18;;;22.40;99.90;;;;;;5104438;28;20238;-88
2022/07/13 01:26:02;;;;;;;6.53;5.93;;;22.40;99.90;;;;;;5121705;28;20289;-86
2022/07/13 01:28:31;;;;;;;7.95;6.25;;;22.40;99.90;;;;;;5115271;28;20492;-87
2022/07/13 01:30:59;;;;;;;7.45;6.00;;;22.40;99.90;;;;;;5112451;28;20585;-88
2022/07/13 01:33:33;;;;;;;6.38;5.20;;;22.40;99.90;;;;;;5110035;28;20200;-87
2022/07/13 01:36:01;;;;;;;5.90;5.30;;;22.40;99.90;;;;;;5120006;28;20231;-89
2022/07/13 01:38:44;;;;;;;6.28;5.68;;;22.40;99.90;;;;;;5109347;28;20221;-88
2022/07/13 01:41:16;;;;;;;5.93;5.43;;;22.40;99.90;;;;;;5106143;28;20208;-88
2022/07/13 01:43:49;;;;;;;9.15;5.32;;;22.40;99.90;;;;;;5112935;28;20622;-87
2022/07/13 01:46:19;;;;;;;7.57;5.32;;;22.40;99.90;;;;;;5105601;28;20234;-88
2022/07/13 01:48:47;;;;;;;7.93;5.85;;;22.50;99.90;;;;;;5115822;28;20236;-87
2022/07/13 01:51:15;;;;;;;10.52;5.35;;;22.40;99.90;;;;;;5124151;28;20298;-90
2022/07/13 01:53:56;;;;;;;6.45;5.60;;;22.40;99.90;;;;;;5124174;28;20183;-87
2022/07/13 01:56:32;;;;;;;6.88;5.22;;;22.40;99.90;;;;;;5118685;28;20188;-88
2022/07/13 01:59:05;;;;;;;5.28;4.60;;;22.40;99.90;;;;;;5131814;28;20218;-88
2022/07/13 02:01:44;;;;;;;5.57;4.95;;;22.40;99.90;;;;;;5132369;28;20197;-87
2022/07/13 02:04:36;;;;;;;6.07;5.30;;;22.40;99.90;;;;;;5124247;28;20227;-88
2022/07/13 02:07:31;;;;;;;4.88;4.38;;;22.40;99.90;;;;;;5126683;28;20604;-88
2022/07/13 02:10:03;;;;;;;6.72;4.60;;;22.30;99.90;;;;;;5108685;28;20225;-90
2022/07/13 02:12:37;;;;;;;7.65;4.80;;;22.30;99.90;;;;;;5123242;28;20199;-88
2022/07/13 02:15:07;;;;;;;5.25;3.88;;;22.30;99.90;;;;;;5123949;28;20218;-88
2022/07/13 02:17:40;;;;;;;4.97;4.47;;;22.20;99.90;;;;;;5122425;28;20210;-88
2022/07/13 02:20:13;;;;;;;4.65;4.15;;;22.40;99.90;;;;;;5121500;28;20208;-89
2022/07/13 02:22:48;;;;;;;4.25;3.85;;;22.30;99.90;;;;;;5123044;28;20207;-89
2022/07/13 02:25:18;;;;;;;4.82;3.88;;;22.40;99.90;;;;;;5120813;28;20226;-87
2022/07/13 02:27:50;;;;;;;4.18;3.75;;;22.40;99.90;;;;;;5122604;28;20207;-87
2022/07/13 02:30:23;;;;;;;5.43;4.53;;;22.40;99.90;;;;;;5121769;28;20241;-87
2022/07/13 02:32:56;;;;;;;4.22;3.83;;;22.40;99.90;;;;;;5106436;28;20199;-89
2022/07/13 02:35:31;;;;;;;4.78;3.97;;;22.40;99.90;;;;;;5120765;28;20647;-87
2022/07/13 02:37:59;;;;;;;4.47;4.05;;;22.40;99.90;;;;;;5118643;28;20210;-86
2022/07/13 02:40:31;;;;;;;4.53;4.13;;;22.40;99.90;;;;;;5113177;28;20237;-87
2022/07/13 02:43:07;;;;;;;5.28;3.70;;;22.40;99.90;;;;;;5107752;28;20199;-88
2022/07/13 02:45:41;;;;;;;4.45;3.50;;;22.40;99.90;;;;;;5131235;28;20227;-88
2022/07/13 02:48:22;;;;;;;4.60;3.42;;;22.40;99.90;;;;;;5124134;28;20287;-88
2022/07/13 02:50:50;;;;;;;4.18;3.20;;;22.40;99.90;;;;;;5114587;28;20200;-87
2022/07/13 02:53:17;;;;;;;3.90;3.47;;;22.40;99.90;;;;;;5124445;28;20206;-88
2022/07/13 02:55:45;;;;;;;4.35;3.35;;;22.50;99.90;;;;;;5122256;28;20217;-88
2022/07/13 02:58:30;;;;;;;3.50;3.20;;;22.40;99.90;;;;;;5109809;28;20656;-88
2022/07/13 03:01:09;;;;;;;4.30;3.47;;;22.50;99.90;;;;;;5099869;28;20629;-89
2022/07/13 03:03:37;;;;;;;4.10;2.78;;;22.50;99.90;;;;;;5102854;28;20211;-88
2022/07/13 03:06:05;;;;;;;3.50;3.20;;;22.40;99.90;;;;;;5109784;28;20223;-89
2022/07/13 03:08:37;;;;;;;4.25;3.08;;;22.50;99.90;;;;;;5101491;28;20204;-86
2022/07/13 03:11:05;;;;;;;3.20;2.88;;;22.50;99.90;;;;;;5102819;28;20227;-87
2022/07/13 03:13:35;;;;;;;4.38;2.95;;;22.50;99.90;;;;;;5100142;28;20296;-89
2022/07/13 03:16:02;;;;;;;4.07;3.40;;;22.50;99.90;;;;;;5103969;28;20215;-87
2022/07/13 03:19:12;;;;;;;3.00;2.72;;;22.60;99.90;;;;;;5106726;28;20234;-88
2022/07/13 03:21:39;;;;;;;3.47;2.60;;;22.50;99.90;;;;;;5108005;28;20285;-87
2022/07/13 03:24:08;;;;;;;3.22;2.63;;;22.50;99.90;;;;;;5104779;28;20642;-88
2022/07/13 03:26:35;;;;;;;3.50;3.10;;;22.60;99.90;;;;;;5100492;28;20203;-88
2022/07/13 03:29:02;;;;;;;4.07;3.00;;;22.50;99.90;;;;;;5111526;28;20199;-87
2022/07/13 03:31:30;;;;;;;3.22;2.58;;;22.50;99.90;;;;;;5100958;28;20218;-87
2022/07/13 03:33:58;;;;;;;2.75;2.53;;;22.50;99.90;;;;;;5107702;28;20223;-89
2022/07/13 03:36:30;;;;;;;2.63;2.30;;;22.50;99.90;;;;;;5123755;28;20983;-89
2022/07/13 03:38:58;;;;;;;2.80;2.33;;;22.60;99.90;;;;;;5132487;28;20206;-88
2022/07/13 03:41:28;;;;;;;2.75;2.28;;;22.60;99.90;;;;;;5125028;28;20212;-87
2022/07/13 03:43:55;;;;;;;3.90;2.38;;;22.60;99.90;;;;;;5122688;28;20199;-89
2022/07/13 03:46:22;;;;;;;2.85;2.63;;;22.60;99.90;;;;;;5142118;22;20287;-80
2022/07/13 03:48:49;;;;;;;2.65;2.45;;;22.60;99.90;;;;;;5102454;28;20726;-79
2022/07/13 03:51:16;;;;;;;4.07;2.70;;;22.60;99.90;;;;;;5104454;28;20195;-82
2022/07/13 03:53:43;;;;;;;3.53;2.58;;;22.70;99.90;;;;;;5112283;28;20248;-81
2022/07/13 03:56:10;;;;;;;5.07;2.50;;;22.70;99.90;;;;;;5110427;28;20208;-82
2022/07/13 03:58:37;;;;;;;2.45;2.25;;;22.70;99.90;;;;;;5111780;28;20207;-80
2022/07/13 04:01:04;;;;;;;3.08;2.85;;;22.70;99.90;;;;;;5106917;28;20224;-81
2022/07/13 04:03:30;;;;;;;3.22;2.40;;;22.80;99.90;;;;;;5111628;28;20203;-82
2022/07/13 04:05:57;;;;;;;3.00;2.40;;;22.80;99.90;;;;;;5104989;28;20275;-80
2022/07/13 04:08:24;;;;;;;4.20;2.47;;;22.80;99.90;;;;;;5104388;28;20204;-80
2022/07/13 04:10:51;;;;;;;3.45;2.40;;;22.80;99.90;;;;;;5097596;28;20744;-81
2022/07/13 04:13:17;;;;;;;3.40;2.70;;;22.80;99.90;;;;;;5096507;28;20246;-80
2022/07/13 04:15:44;;;;;;;3.35;2.55;;;22.90;99.90;;;;;;5104326;28;20264;-81
2022/07/13 04:18:11;;;;;;;2.88;2.60;;;22.80;99.90;;;;;;5094263;28;20266;-80
2022/07/13 04:20:38;;;;;;;2.50;2.30;;;22.90;99.90;;;;;;5098911;28;20283;-80
2022/07/13 04:23:04;;;;;;;2.75;2.42;;;22.90;99.90;;;;;;5103846;28;20260;-80
2022/07/13 04:25:31;;;;;;;4.85;2.58;;;22.90;99.90;;;;;;5101109;28;20223;-81
2022/07/13 04:27:58;;;;;;;3.35;2.35;;;23.00;99.90;;;;;;5096909;28;20203;-80
2022/07/13 04:30:25;;;;;;;3.28;2.78;;;23.00;99.90;;;;;;5101385;28;20226;-81
2022/07/13 04:32:52;;;;;;;4.30;2.60;;;23.00;99.90;;;;;;5099676;28;20207;-82
2022/07/13 04:35:19;;;;;;;4.80;2.67;;;23.00;99.90;;;;;;5102727;28;20314;-80
2022/07/13 04:37:46;;;;;;;4.78;2.55;;;23.00;99.90;;;;;;5099451;28;20631;-83
2022/07/13 04:40:13;;;;;;;3.63;2.42;;;23.00;99.90;;;;;;5098928;28;20204;-80
2022/07/13 04:42:40;;;;;;;3.90;2.95;;;23.10;99.90;;;;;;5099035;28;20299;-82
2022/07/13 04:45:07;;;;;;;3.78;2.80;;;23.10;99.90;;;;;;5099926;28;20346;-79
2022/07/13 04:47:33;;;;;;;3.70;2.55;;;23.10;99.90;;;;;;5096166;28;20326;-81
2022/07/13 04:50:00;;;;;;;4.78;2.88;;;23.10;99.90;;;;;;5098886;28;20320;-81
2022/07/13 04:52:27;;;;;;;3.50;2.60;;;23.10;99.90;;;;;;5106834;28;20550;-81
2022/07/13 04:54:54;;;;;;;5.13;2.83;;;23.20;99.90;;;;;;5102564;28;20245;-81
2022/07/13 04:57:22;;;;;;;4.43;2.63;;;23.20;99.90;;;;;;5103064;28;20203;-80
2022/07/13 04:59:49;;;;;;;4.20;2.85;;;23.30;99.90;;;;;;5100670;28;20210;-81
2022/07/13 05:02:15;;;;;;;3.67;2.88;;;23.30;99.90;;;;;;5109330;28;20292;-81
2022/07/13 05:04:42;;;;;;;5.28;2.60;;;23.40;99.90;;;;;;5102674;28;20227;-80
2022/07/13 05:07:09;;;;;;;4.43;2.85;;;23.40;99.90;;;;;;5101006;28;20269;-80
2022/07/13 05:09:36;;;;;;;2.83;2.28;;;23.50;99.90;;;;;;5103936;28;20791;-80
2022/07/13 05:12:03;;;;;;;5.75;3.00;;;23.50;99.90;;;;;;5101249;28;20609;-80
2022/07/13 05:14:30;;;;;;;5.97;3.00;;;23.60;99.90;;;;;;5103574;28;21071;-82
2022/07/13 05:16:57;;;;;;;5.72;3.10;;;23.60;99.90;;;;;;5098465;28;20268;-80
2022/07/13 05:19:23;;;;;;;4.10;3.10;;;23.70;99.90;;;;;;5098492;28;20311;-80
2022/07/13 05:21:50;;;;;;;6.97;3.08;;;23.70;99.90;;;;;;5105539;28;20604;-81
2022/07/13 05:24:17;;;;;;;5.55;3.63;;;23.80;99.90;;;;;;5098102;28;20206;-80
2022/07/13 05:26:44;;;;;;;8.10;4.35;;;23.80;99.90;;;;;;5105044;28;20215;-80
2022/07/13 05:29:11;;;;;;;6.60;3.42;;;23.90;99.90;;;;;;5102740;28;20677;-81
2022/07/13 05:31:37;;;;;;;5.88;3.58;;;23.90;99.90;;;;;;5099082;28;20222;-80
2022/07/13 05:34:05;;;;;;;4.80;3.30;;;24.00;99.90;;;;;;5104539;28;20639;-82
2022/07/13 05:36:32;;;;;;;6.93;3.75;;;24.10;99.90;;;;;;5102556;28;20282;-81
2022/07/13 05:38:59;;;;;;;4.68;3.72;;;24.00;99.90;;;;;;5102855;28;20688;-80
2022/07/13 05:41:27;;;;;;;4.43;3.88;;;24.10;99.90;;;;;;5102976;28;20196;-82
2022/07/13 05:43:54;;;;;;;4.30;3.55;;;24.20;99.90;;;;;;5100119;28;20214;-79
2022/07/13 05:46:20;;;;;;;6.50;4.05;;;24.20;99.90;;;;;;5105372;28;20727;-82
2022/07/13 05:48:47;;;;;;;5.32;4.35;;;24.20;99.90;;;;;;5097713;28;20217;-81
2022/07/13 05:51:14;;;;;;;6.80;4.43;;;24.20;99.90;;;;;;5099390;28;20235;-81
2022/07/13 05:54:00;;;;;;;7.35;4.20;;;24.30;99.90;;;;;;5095468;28;20280;-80
2022/07/13 05:56:47;;;;;;;6.13;4.40;;;24.30;99.90;;;;;;5099450;27;20293;-82
2022/07/13 05:59:14;;;;;;;6.05;5.00;;;24.30;99.90;;;;;;5101846;28;20224;-82
2022/07/13 06:01:40;;;;;;;5.38;4.60;;;24.40;99.90;;;;;;5103416;28;20211;-82
2022/07/13 06:04:07;;;;;;;9.00;4.85;;;24.50;99.90;;;;;;5102357;28;20204;-81
2022/07/13 06:06:34;;;;;;;7.93;5.47;;;24.50;99.90;;;;;;5102107;28;20227;-82
2022/07/13 06:09:01;;;;;;;9.10;5.15;;;24.50;99.90;;;;;;5103761;28;20585;-82
2022/07/13 06:11:28;;;;;;;9.82;6.38;;;24.50;99.90;;;;;;5100120;28;20207;-81
2022/07/13 06:13:55;;;;;;;7.00;5.40;;;24.50;99.90;;;;;;5100773;28;20260;-81
2022/07/13 06:16:21;;;;;;;8.93;5.93;;;24.60;99.90;;;;;;5100209;28;20272;-81
2022/07/13 06:18:48;;;;;;;9.82;5.80;;;24.70;99.90;;;;;;5096932;28;20297;-82
2022/07/13 06:21:15;;;;;;;8.88;6.40;;;24.70;99.90;;;;;;5104898;28;20260;-83
2022/07/13 06:23:42;;;;;;;10.15;5.97;;;24.80;99.90;;;;;;5092565;27;20227;-84
2022/07/13 06:26:09;;;;;;;10.10;6.22;;;24.80;99.90;;;;;;5099490;28;20223;-83
2022/07/13 06:28:35;;;;;;;6.55;5.85;;;24.80;99.90;;;;;;5104292;28;20276;-82
2022/07/13 06:31:02;;;;;;;9.23;6.13;;;24.80;99.90;;;;;;5110613;28;20220;-84
2022/07/13 06:33:29;;;;;;;9.00;5.85;;;24.90;99.90;;;;;;5104545;28;20403;-85
2022/07/13 06:35:56;;;;;;;8.35;6.50;;;25.00;99.90;;;;;;5114406;28;20214;-83
2022/07/13 06:38:24;;;;;;;12.38;6.32;;;25.10;99.90;;;;;;5106295;28;20292;-83
2022/07/13 06:40:51;;;;;;;14.50;6.43;;;25.20;99.90;;;;;;5108164;28;20211;-84
2022/07/13 06:43:17;;;;;;;10.25;6.90;;;25.30;99.90;;;;;;5112678;28;20226;-83
2022/07/13 06:45:44;;;;;;;8.88;6.22;;;25.40;99.90;;;;;;5112185;28;20842;-87
2022/07/13 06:48:11;;;;;;;9.15;6.32;;;25.50;99.90;;;;;;5095838;28;20222;-85
2022/07/13 06:50:38;;;;;;;8.52;7.13;;;25.60;99.90;;;;;;5083104;28;20203;-82
2022/07/13 06:53:05;;;;;;;11.73;6.55;;;25.80;99.90;;;;;;5076301;28;20237;-83
2022/07/13 06:55:33;;;;;;;8.48;6.75;;;25.90;99.90;;;;;;5076039;28;20215;-83
2022/07/13 06:58:00;;;;;;;7.60;6.80;;;26.30;99.90;;;;;;5078113;28;20257;-85
2022/07/13 07:00:27;;;;;;;12.70;7.22;;;26.30;99.90;;;;;;5058798;28;20220;-83
2022/07/13 07:02:54;;;;;;;12.27;7.35;;;26.60;99.90;;;;;;5078541;28;20227;-83
2022/07/13 07:05:22;;;;;;;10.70;6.90;;;26.70;99.90;;;;;;5077245;28;20234;-83
2022/07/13 07:07:48;;;;;;;7.57;6.47;;;27.20;99.90;;;;;;5073978;28;20203;-84
2022/07/13 07:10:15;;;;;;;10.88;6.68;;;27.60;99.90;;;;;;5071028;28;20212;-83
2022/07/13 07:12:42;;;;;;;9.35;6.63;;;27.90;99.90;;;;;;5082413;28;20258;-84
2022/07/13 07:15:09;;;;;;;10.25;6.78;;;28.00;99.90;;;;;;5054467;28;20200;-83
2022/07/13 07:17:49;;;;;;;6.78;5.72;;;28.20;99.90;;;;;;5069654;28;20740;-84
2022/07/13 07:20:17;;;;;;;11.45;6.30;;;28.50;99.90;;;;;;5081224;28;20215;-86
2022/07/13 07:22:45;;;;;;;7.85;5.70;;;29.10;99.90;;;;;;5076801;28;20684;-84
2022/07/13 07:25:13;;;;;;;10.32;6.10;;;29.90;99.90;;;;;;5070200;28;20287;-86
2022/07/13 07:27:41;;;;;;;11.20;5.50;;;30.30;99.90;;;;;;5071758;28;20216;-85
2022/07/13 07:30:08;;;;;;;7.20;5.05;;;30.40;99.90;;;;;;5080469;28;20732;-87
2022/07/13 07:32:35;;;;;;;7.00;5.10;;;30.50;99.90;;;;;;5068942;28;20229;-86
2022/07/13 07:35:02;;;;;;;9.90;5.05;;;30.70;99.90;;;;;;5065533;28;20211;-85
2022/07/13 07:37:29;;;;;;;7.30;5.60;;;30.50;99.90;;;;;;5086215;28;20200;-85
2022/07/13 07:39:56;;;;;;;6.90;5.28;;;30.50;99.90;;;;;;5063778;28;20200;-84
2022/07/13 07:42:22;;;;;;;9.65;4.53;;;30.40;99.90;;;;;;5087753;28;20288;-83
2022/07/13 07:44:49;;;;;;;7.65;4.85;;;30.90;99.90;;;;;;5066535;28;20212;-88
2022/07/13 07:47:16;;;;;;;6.70;4.47;;;31.50;99.90;;;;;;5095222;28;20270;-84
2022/07/13 07:49:43;;;;;;;7.28;4.55;;;31.90;99.90;;;;;;5101976;28;20199;-83
2022/07/13 07:52:10;;;;;;;7.07;4.90;;;32.00;99.60;;;;;;5102023;28;20211;-84
2022/07/13 07:54:57;;;;;;;5.90;5.22;;;32.30;99.10;;;;;;5100177;28;20196;-83
2022/07/13 07:57:27;;;;;;;7.85;4.63;;;32.10;98.40;;;;;;5094090;28;20248;-84
2022/07/13 07:59:55;;;;;;;6.82;4.22;;;31.90;98.30;;;;;;5100408;28;20261;-83
2022/07/13 08:02:21;;;;;;;6.78;4.35;;;31.50;98.90;;;;;;5116861;28;20293;-83
2022/07/13 08:04:49;;;;;;;4.72;4.05;;;31.50;99.00;;;;;;5098503;28;20314;-85
2022/07/13 08:07:16;;;;;;;4.97;3.97;;;31.90;98.80;;;;;;5104450;28;20712;-83
2022/07/13 08:09:43;;;;;;;7.03;3.88;;;32.10;98.80;;;;;;5098136;28;20336;-85
2022/07/13 08:12:10;;;;;;;7.43;4.43;;;32.60;98.30;;;;;;5091290;28;20294;-82
2022/07/13 08:14:37;;;;;;;5.93;4.13;;;33.10;97.60;;;;;;5101141;28;20714;-83
2022/07/13 08:17:03;;;;;;;6.78;3.72;;;33.10;97.20;;;;;;5102996;28;20208;-82
2022/07/13 08:19:30;;;;;;;8.05;4.72;;;33.50;96.90;;;;;;5102179;28;20206;-83
2022/07/13 08:22:07;;;;;;;7.28;4.10;;;33.90;96.50;;;;;;5099021;28;20679;-84
2022/07/13 08:24:35;;;;;;;5.32;4.03;;;34.40;95.90;;;;;;5106056;28;20208;-85
2022/07/13 08:27:02;;;;;;;7.20;4.03;;;34.70;95.30;;;;;;5106958;28;20223;-85
2022/07/13 08:29:32;;;;;;;4.03;3.63;;;34.80;94.60;;;;;;5119649;28;20232;-82
2022/07/13 08:31:59;;;;;;;3.78;3.45;;;35.00;94.30;;;;;;5116992;27;20219;-86
2022/07/13 08:40:11;;;;;;;6.57;3.80;;;34.90;92.80;;;;;;5106958;28;20194;-81
2022/07/13 08:42:39;;;;;;;7.97;3.20;;;34.90;93.00;;;;;;5109899;28;20642;-84
2022/07/13 08:45:06;;;;;;;4.47;3.92;;;34.90;92.60;;;;;;5106727;28;20217;-84
2022/07/13 08:47:37;;;;;;;4.65;3.50;;;35.00;92.30;;;;;;5096918;28;20234;-85
2022/07/13 08:50:06;;;;;;;6.40;3.90;;;35.30;92.20;;;;;;5096534;28;21027;-84
2022/07/13 08:52:38;;;;;;;3.63;3.33;;;35.40;91.70;;;;;;5105845;28;20319;-84
2022/07/13 08:55:06;;;;;;;5.35;3.50;;;35.30;91.60;;;;;;5096797;28;20199;-86
2022/07/13 08:57:35;;;;;;;4.28;3.55;;;35.00;91.30;;;;;;5097107;28;20199;-85
2022/07/13 09:00:06;;;;;;;5.70;3.63;;;35.00;91.00;;;;;;5096696;28;20256;-85
2022/07/13 09:02:33;;;;;;;7.20;3.97;;;35.00;90.70;;;;;;5103293;28;20248;-85
2022/07/13 09:05:06;;;;;;;6.13;3.80;;;35.20;89.80;;;;;;5104520;28;20206;-86
2022/07/13 09:07:36;;;;;;;4.18;3.78;;;35.20;87.60;;;;;;5098588;28;20986;-86
2022/07/13 09:10:04;;;;;;;5.68;4.03;;;35.20;87.70;;;;;;5105158;28;20232;-85
2022/07/13 09:12:34;;;;;;;6.28;4.40;;;35.30;87.60;;;;;;5105074;28;20709;-84
2022/07/13 09:15:06;;;;;;;8.13;4.50;;;35.40;87.00;;;;;;5100324;28;20210;-85
2022/07/13 09:17:45;;;;;;;5.22;4.20;;;35.30;85.30;;;;;;5099933;28;20214;-85
2022/07/13 09:20:14;;;;;;;5.80;4.53;;;35.30;86.70;;;;;;5097736;28;20247;-84
2022/07/13 09:22:52;;;;;;;4.32;3.85;;;35.20;86.10;;;;;;5103729;28;20210;-85
2022/07/13 09:25:32;;;;;;;6.10;3.80;;;35.00;85.20;;;;;;5097555;28;20719;-84
2022/07/13 09:28:07;;;;;;;5.55;4.18;;;35.00;85.30;;;;;;5097126;28;20209;-83
2022/07/13 09:30:36;;;;;;;4.22;3.83;;;35.10;84.60;;;;;;5103241;28;20233;-85
2022/07/13 09:33:03;;;;;;;5.65;4.40;;;35.10;84.00;;;;;;5104753;28;20686;-84
2022/07/13 09:35:49;;;;;;;6.93;4.43;;;35.10;83.10;;;;;;5099016;28;20203;-83
2022/07/13 09:38:33;;;;;;;4.53;4.05;;;34.80;81.60;;;;;;5101011;28;20225;-85
2022/07/13 09:41:18;;;;;;;6.10;4.30;;;34.50;82.40;;;;;;5109977;28;20202;-84
2022/07/13 09:46:51;;;;;;;5.78;3.75;;;34.40;81.50;;;;;;5093844;28;20234;-83
2022/07/13 09:49:28;;;;;;;4.22;3.50;;;34.30;81.60;;;;;;5096848;28;20799;-84
2022/07/13 09:51:59;;;;;;;5.00;3.70;;;34.20;82.20;;;;;;5094187;28;20203;-84
2022/07/13 09:54:28;;;;;;;5.05;3.75;;;34.30;82.80;;;;;;5096968;28;20211;-84
2022/07/13 09:57:00;;;;;;;7.30;3.92;;;34.20;81.90;;;;;;5095231;28;20563;-83
2022/07/13 09:59:30;;;;;;;4.78;4.00;;;34.20;83.20;;;;;;5101541;28;20199;-84
2022/07/13 10:01:57;;;;;;;5.03;2.95;;;34.30;82.90;;;;;;5098794;28;20557;-85
2022/07/13 10:04:25;;;;;;;2.92;2.70;;;34.40;81.40;;;;;;5094413;28;20195;-85
2022/07/13 10:07:12;;;;;;;3.70;3.25;;;34.30;80.20;;;;;;5096981;28;20263;-85
2022/07/13 10:09:39;;;;;;;6.10;3.63;;;;;;;;;;5103116;28;20251;-84
2022/07/13 10:12:08;;;;;;;4.78;2.58;;;33.90;80.10;;;;;;5095708;28;20211;-86
2022/07/13 10:14:37;;;;;;;4.75;2.60;;;34.00;79.80;;;;;;5097413;28;20281;-85
2022/07/13 10:17:10;;;;;;;2.70;2.50;;;34.00;80.10;;;;;;5100263;28;20222;-84
2022/07/13 10:20:03;;;;;;;4.22;2.20;;;33.90;79.00;;;;;;5098528;28;20286;-84
2022/07/13 10:22:39;;;;;;;3.03;2.55;;;33.90;79.60;;;;;;5101142;28;20210;-85
2022/07/13 10:25:06;;;;;;;3.88;2.80;;;33.90;80.20;;;;;;5092023;28;20620;-83
2022/07/13 10:27:36;;;;;;;2.80;2.60;;;34.00;79.90;;;;;;5099246;28;20231;-86
2022/07/13 10:30:05;;;;;;;7.80;3.08;;;34.10;80.30;;;;;;5091419;28;20488;-81
2022/07/13 10:32:39;;;;;;;4.60;3.00;;;33.80;78.90;;;;;;5096094;28;20226;-83
2022/07/13 10:35:09;;;;;;;3.40;3.03;;;33.60;79.10;;;;;;5091514;28;20211;-85
2022/07/13 10:37:55;;;;;;;4.80;2.85;;;33.30;80.10;;;;;;5095720;28;20200;-83
2022/07/13 10:40:31;;;;;;;4.50;2.50;;;33.20;79.60;;;;;;5091471;28;20223;-81
2022/07/13 10:43:04;;;;;;;4.25;2.10;;;33.10;79.30;;;;;;5096528;28;20631;-84
2022/07/13 10:45:34;;;;;;;4.43;2.22;;;33.10;79.20;;;;;;5098254;28;20215;-84
2022/07/13 10:48:05;;;;;;;3.85;2.30;;;33.00;80.30;;;;;;5104604;28;20288;-83
2022/07/13 10:50:59;;;;;;;2.95;1.63;;;32.90;79.70;;;;;;5094190;28;20208;-84
2022/07/13 10:53:37;;;;;;;5.32;2.00;;;32.90;77.90;;;;;;5092929;28;20249;-83
2022/07/13 10:56:15;;;;;;;3.20;2.33;;;32.80;79.60;;;;;;5095337;28;20208;-82
2022/07/13 10:58:43;;;;;;;2.53;2.00;;;32.90;81.00;;;;;;5098787;28;20199;-83
2022/07/13 11:01:33;;;;;;;3.28;2.10;;;33.00;80.50;;;;;;5093826;28;20277;-85
2022/07/13 11:04:00;;;;;;;4.43;2.10;;;33.00;81.10;;;;;;5090469;28;20291;-84
2022/07/13 11:06:28;;;;;;;2.55;1.85;;;32.90;82.30;;;;;;5098221;28;20254;-83
2022/07/13 11:09:28;;;;;;;2.88;1.92;;;33.00;80.50;;;;;;5101552;28;20203;-82
2022/07/13 11:11:55;;;;;;;3.58;2.17;;;33.30;80.20;;;;;;5061549;28;20214;-84
2022/07/13 11:14:39;;;;;;;3.17;1.60;;;33.20;79.70;;;;;;5099383;28;20246;-85
2022/07/13 11:17:32;;;;;;;2.00;1.80;;;33.30;78.30;;;;;;5095011;28;20745;-83
2022/07/13 11:20:09;;;;;;;2.63;1.85;;;33.20;78.10;;;;;;5100505;28;20298;-84
2022/07/13 11:25:50;;;;;;;3.45;1.60;;;33.20;78.90;;;;;;5095310;28;20208;-85
2022/07/13 11:28:25;;;;;;;5.20;1.83;;;33.30;78.20;;;;;;5097667;28;20231;-87
2022/07/13 11:30:54;;;;;;;13.10;3.13;;;33.40;78.20;;;;;;5099789;28;20911;-84
2022/07/13 11:33:21;;;;;;;11.10;2.70;;;33.50;76.50;;;;;;5099650;28;20719;-86
2022/07/13 11:35:49;;;;;;;3.58;2.13;;;33.50;75.50;;;;;;5104746;28;20218;-82
2022/07/13 11:38:17;;;;;;;2.08;1.80;;;33.40;75.30;;;;;;5098792;28;20208;-82
2022/07/13 11:40:44;;;;;;;5.15;2.00;;;33.30;76.00;;;;;;5098735;28;20660;-83
2022/07/13 11:43:12;;;;;;;2.75;1.98;;;33.20;75.50;;;;;;5102622;28;20203;-82
2022/07/13 11:45:40;;;;;;;3.03;1.98;;;33.10;76.60;;;;;;5097503;28;20230;-84
2022/07/13 11:48:12;;;;;;;2.00;1.77;;;33.00;77.10;;;;;;5092456;27;20253;-84
2022/07/13 11:50:50;;;;;;;2.05;1.75;;;33.00;76.30;;;;;;5100019;28;20956;-82
2022/07/13 11:53:21;;;;;;;5.30;1.90;;;33.00;75.10;;;;;;5097212;28;20203;-81
2022/07/13 11:55:48;;;;;;;9.88;2.00;;;33.20;75.10;;;;;;5094389;28;20208;-83
2022/07/13 11:58:23;;;;;;;5.60;2.15;;;33.10;75.40;;;;;;5098381;28;20882;-85
2022/07/13 12:00:50;;;;;;;3.70;2.05;;;33.20;76.60;;;;;;5101722;28;20694;-82
2022/07/13 12:03:25;;;;;;;2.38;2.13;;;33.40;77.10;;;;;;5098488;28;20203;-85
2022/07/13 12:05:52;;;;;;;3.88;2.30;;;33.60;75.30;;;;;;5095220;28;20723;-82
2022/07/13 12:08:19;;;;;;;3.42;1.92;;;33.50;75.20;;;;;;5097327;28;20268;-82
2022/07/13 12:10:46;;;;;;;4.50;2.13;;;33.60;75.30;;;;;;5097310;28;20209;-82
2022/07/13 12:13:13;;;;;;;7.45;1.90;;;33.60;75.60;;;;;;5101223;28;20230;-80
2022/07/13 12:15:40;;;;;;;2.58;2.03;;;33.50;74.80;;;;;;5101780;27;20215;-83
2022/07/13 12:18:06;;;;;;;3.85;2.13;;;33.70;74.40;;;;;;5100307;28;20207;-86
2022/07/13 12:20:34;;;;;;;3.10;2.30;;;33.80;74.00;;;;;;5098313;28;20207;-83
2022/07/13 12:23:04;;;;;;;2.70;1.90;;;33.80;73.20;;;;;;5099017;28;20705;-84
2022/07/13 12:25:33;;;;;;;3.25;2.00;;;33.80;73.60;;;;;;5103276;28;20588;-83
2022/07/13 12:28:05;;;;;;;4.00;2.25;;;33.60;74.20;;;;;;5095260;28;20246;-84
2022/07/13 12:30:33;;;;;;;2.75;2.00;;;33.50;74.40;;;;;;5098817;28;20223;-84
2022/07/13 12:33:02;;;;;;;2.90;2.22;;;33.50;73.90;;;;;;5100121;28;20230;-83
2022/07/13 12:35:37;;;;;;;3.88;2.38;;;33.60;74.20;;;;;;5098166;28;20215;-81
2022/07/13 12:38:09;;;;;;;4.65;2.28;;;33.70;75.30;;;;;;5098625;28;20203;-82
2022/07/13 12:40:52;;;;;;;4.38;2.45;;;33.80;75.10;;;;;;5099095;28;20199;-82
2022/07/13 12:43:29;;;;;;;3.10;2.17;;;33.80;74.70;;;;;;5098748;28;20271;-82
2022/07/13 12:45:58;;;;;;;4.80;2.00;;;33.80;74.40;;;;;;5101611;27;20683;-81
2022/07/13 12:48:35;;;;;;;3.22;1.73;;;33.70;73.40;;;;;;5100227;28;20250;-82
2022/07/13 12:51:11;;;;;;;3.35;1.95;;;33.60;72.30;;;;;;5101203;28;20199;-83
2022/07/13 12:53:53;;;;;;;2.97;2.00;;;33.30;71.90;;;;;;5096305;28;20793;-80
2022/07/13 12:56:23;;;;;;;2.33;1.60;;;33.20;71.30;;;;;;5094673;28;20204;-81
2022/07/13 12:58:56;;;;;;;1.90;1.80;;;33.10;71.50;;;;;;5122822;22;20500;-85
2022/07/13 13:01:39;;;;;;;3.97;2.42;;;33.00;71.90;;;;;;5119967;27;20228;-86
2022/07/13 13:04:11;;;;;;;2.63;2.13;;;32.80;72.00;;;;;;5120589;27;20192;-88
2022/07/13 13:06:49;;;;;;;4.68;2.60;;;32.60;72.70;;;;;;5130259;27;20202;-89
2022/07/13 13:09:34;;;;;;;2.75;2.10;;;32.60;73.90;;;;;;5140996;27;20195;-89
2022/07/13 13:12:46;;;;;;;3.20;2.28;;;32.70;74.00;;;;;;5122004;27;20229;-86
2022/07/13 13:15:20;;;;;;;4.75;2.25;;;32.80;75.90;;;;;;5127550;27;20230;-88
2022/07/13 13:17:52;;;;;;;4.40;2.17;;;32.90;75.30;;;;;;5121651;28;20304;-88